Time;durP1;ratioP1;P1;durP2;ratioP2;P2;SDS_P1;SDS_P2;PMS_P1;PMS_P2;Temp;Humidity;BMP_temperature;BMP_pressure;BME280_temperature;BME280_humidity;BME280_pressure;Samples;Min_cycle;Max_cycle;Signal;HPM_P1;HPM_P2
2023/06/28 00:00:08;;;;;;;6.80;5.53;;;;;;;;;;10248203;28;20530;-61
2023/06/28 00:05:15;;;;;;;6.85;5.68;;;;;;;;;;10252080;28;20087;-61
2023/06/28 00:10:15;;;;;;;8.60;5.32;;;;;;;;;;10252708;28;20077;-61
2023/06/28 00:15:13;;;;;;;8.57;5.93;;;;;;;;;;10252404;28;20080;-61
2023/06/28 00:20:12;;;;;;;6.20;5.65;;;;;;;;;;10250901;28;20073;-61
2023/06/28 00:25:10;;;;;;;5.57;5.07;;;;;;;;;;10251565;28;20068;-61
2023/06/28 00:30:10;;;;;;;6.03;5.53;;;;;;;;;;10251077;28;20088;-62
2023/06/28 00:35:09;;;;;;;6.28;5.40;;;;;;;;;;10250752;28;20466;-62
2023/06/28 00:40:08;;;;;;;5.90;5.30;;;;;;;;;;10251975;28;20072;-61
2023/06/28 00:45:07;;;;;;;6.97;5.68;;;;;;;;;;10252424;28;20080;-61
2023/06/28 00:50:07;;;;;;;5.82;5.28;;;;;;;;;;10249147;28;20095;-62
2023/06/28 00:55:05;;;;;;;5.68;5.18;;;;;;;;;;10251715;28;20087;-61
2023/06/28 01:00:09;;;;;;;7.50;5.70;;;;;;;;;;10247839;28;20088;-61
2023/06/28 01:05:09;;;;;;;5.40;4.88;;;;;;;;;;10247320;28;20072;-60
2023/06/28 01:10:08;;;;;;;7.75;5.60;;;;;;;;;;10250551;28;20083;-61
2023/06/28 01:15:07;;;;;;;6.43;5.57;;;;;;;;;;10250697;28;20808;-61
2023/06/28 01:20:07;;;;;;;6.15;5.15;;;;;;;;;;10248268;28;20536;-61
2023/06/28 01:25:09;;;;;;;5.70;5.20;;;;;;;;;;10246886;28;20088;-61
2023/06/28 01:30:11;;;;;;;6.72;5.65;;;;;;;;;;10252202;28;20481;-62
2023/06/28 01:35:09;;;;;;;6.43;5.55;;;;;;;;;;10255161;28;20084;-61
2023/06/28 01:40:10;;;;;;;6.85;5.07;;;;;;;;;;10248894;28;20088;-61
2023/06/28 01:45:09;;;;;;;7.18;6.47;;;;;;;;;;10249389;28;20080;-61
2023/06/28 01:50:07;;;;;;;9.57;4.90;;;;;;;;;;10247001;28;20544;-61
2023/06/28 01:55:06;;;;;;;5.53;5.03;;;;;;;;;;10249696;28;20083;-62
2023/06/28 02:00:08;;;;;;;6.35;5.75;;;;;;;;;;10244810;28;20085;-62
2023/06/28 02:05:13;;;;;;;5.72;4.95;;;;;;;;;;10250808;28;20463;-62
2023/06/28 02:10:14;;;;;;;6.72;5.28;;;;;;;;;;10249110;28;20046;-62
2023/06/28 02:15:14;;;;;;;6.28;5.40;;;;;;;;;;10247730;28;20084;-62
2023/06/28 02:20:12;;;;;;;6.22;5.53;;;;;;;;;;10248881;28;20073;-62
2023/06/28 02:25:11;;;;;;;5.85;5.30;;;;;;;;;;10248222;28;20068;-61
2023/06/28 02:30:10;;;;;;;7.53;5.90;;;;;;;;;;10257216;28;20073;-61
2023/06/28 02:35:10;;;;;;;6.50;4.93;;;;;;;;;;10256440;28;20072;-61
2023/06/28 02:40:13;;;;;;;6.18;5.40;;;;;;;;;;10256268;28;20558;-61
2023/06/28 02:45:11;;;;;;;9.88;5.05;;;;;;;;;;10256810;28;20073;-61
2023/06/28 02:50:11;;;;;;;5.65;4.70;;;;;;;;;;10257475;28;20148;-61
2023/06/28 02:55:28;;;;;;;11.43;5.45;;;;;;;;;;10253874;28;20108;-61
2023/06/28 03:00:29;;;;;;;6.07;5.47;;;;;;;;;;10256337;28;20069;-61
2023/06/28 03:05:29;;;;;;;6.25;5.63;;;;;;;;;;10255305;28;20450;-61
2023/06/28 03:10:27;;;;;;;5.53;5.03;;;;;;;;;;10259191;28;20114;-61
2023/06/28 03:15:26;;;;;;;7.18;5.38;;;;;;;;;;10254886;28;20068;-61
2023/06/28 03:20:25;;;;;;;7.07;5.20;;;;;;;;;;10256580;28;20063;-61
2023/06/28 03:25:24;;;;;;;7.35;5.97;;;;;;;;;;10257216;28;20052;-62
2023/06/28 03:30:23;;;;;;;6.95;5.30;;;;;;;;;;10253573;28;20532;-62
2023/06/28 03:35:21;;;;;;;5.55;5.00;;;;;;;;;;10253148;28;20446;-62
2023/06/28 03:40:20;;;;;;;6.30;5.65;;;;;;;;;;10268360;28;20069;-62
2023/06/28 03:45:19;;;;;;;7.28;5.68;;;;;;;;;;10261267;28;20073;-62
2023/06/28 03:50:18;;;;;;;7.47;5.55;;;;;;;;;;10251610;28;20077;-61
2023/06/28 03:55:16;;;;;;;5.90;5.25;;;;;;;;;;10254839;28;20910;-61
2023/06/28 04:00:15;;;;;;;10.85;6.05;;;;;;;;;;10248165;28;20076;-61
2023/06/28 04:05:16;;;;;;;6.93;6.25;;;;;;;;;;10251447;28;20076;-61
2023/06/28 04:10:14;;;;;;;6.97;6.30;;;;;;;;;;10254308;28;20084;-61
2023/06/28 04:15:12;;;;;;;7.32;6.63;;;;;;;;;;10251050;28;20080;-61
2023/06/28 04:20:11;;;;;;;8.30;6.82;;;;;;;;;;10253442;28;20073;-61
2023/06/28 04:25:11;;;;;;;7.28;6.28;;;;;;;;;;10251089;28;20064;-62
2023/06/28 04:30:09;;;;;;;7.18;6.45;;;;;;;;;;10249953;28;20548;-61
2023/06/28 04:35:09;;;;;;;7.53;6.30;;;;;;;;;;10251855;28;20069;-61
2023/06/28 04:40:08;;;;;;;7.03;6.25;;;;;;;;;;10252020;28;20083;-61
2023/06/28 04:45:09;;;;;;;7.95;6.82;;;;;;;;;;10251597;28;20552;-61
2023/06/28 04:50:08;;;;;;;8.02;7.22;;;;;;;;;;10251079;28;20096;-61
2023/06/28 04:55:06;;;;;;;9.43;6.90;;;;;;;;;;10252588;28;20088;-61
2023/06/28 05:00:09;;;;;;;8.35;6.93;;;;;;;;;;10252187;28;20518;-62
2023/06/28 05:05:09;;;;;;;9.77;7.82;;;;;;;;;;10260838;28;20450;-61
2023/06/28 05:10:08;;;;;;;7.95;7.13;;;;;;;;;;10255824;28;20515;-60
2023/06/28 05:15:07;;;;;;;11.43;7.10;;;;;;;;;;10251996;28;20100;-61
2023/06/28 05:20:06;;;;;;;8.45;6.78;;;;;;;;;;10246474;28;20076;-61
2023/06/28 05:25:06;;;;;;;12.60;7.70;;;;;;;;;;10252702;28;20503;-61
2023/06/28 05:30:05;;;;;;;15.02;7.60;;;;;;;;;;10248378;28;20045;-62
2023/06/28 05:35:03;;;;;;;10.18;7.28;;;;;;;;;;10249645;28;20132;-61
2023/06/28 05:40:01;;;;;;;8.88;7.95;;;;;;;;;;10252544;28;20081;-61
2023/06/28 05:45:01;;;;;;;7.15;6.45;;;;;;;;;;10251925;28;20076;-60
2023/06/28 05:49:59;;;;;;;7.75;7.05;;;;;;;;;;10248917;28;20079;-60
2023/06/28 05:54:57;;;;;;;12.13;7.25;;;;;;;;;;10249801;28;20720;-61
2023/06/28 05:59:56;;;;;;;7.78;6.97;;;;;;;;;;10248629;28;20060;-60
2023/06/28 06:04:55;;;;;;;9.50;7.35;;;;;;;;;;10251461;28;20060;-60
2023/06/28 06:09:54;;;;;;;7.93;7.13;;;;;;;;;;10263002;28;20071;-61
2023/06/28 06:14:52;;;;;;;7.15;6.45;;;;;;;;;;10267673;28;20137;-62
2023/06/28 06:19:50;;;;;;;7.07;6.38;;;;;;;;;;10260662;28;20061;-61
2023/06/28 06:24:50;;;;;;;7.13;6.43;;;;;;;;;;10254466;28;20079;-59
2023/06/28 06:29:48;;;;;;;7.40;6.78;;;;;;;;;;10257430;28;20069;-60
2023/06/28 06:34:46;;;;;;;8.13;6.15;;;;;;;;;;10258963;28;20084;-62
2023/06/28 06:39:45;;;;;;;9.68;6.25;;;;;;;;;;10255965;28;20072;-61
2023/06/28 06:44:44;;;;;;;14.48;6.22;;;;;;;;;;10254776;28;20339;-61
2023/06/28 06:49:42;;;;;;;7.45;6.75;;;;;;;;;;10254969;28;20075;-62
2023/06/28 06:54:40;;;;;;;8.00;5.88;;;;;;;;;;10256146;28;20072;-60
2023/06/28 06:59:39;;;;;;;13.43;6.88;;;;;;;;;;10252539;28;20113;-60
2023/06/28 07:04:38;;;;;;;6.93;6.13;;;;;;;;;;10254142;28;20089;-60
2023/06/28 07:09:36;;;;;;;7.15;6.45;;;;;;;;;;10251944;28;20071;-61
2023/06/28 07:14:35;;;;;;;12.70;6.30;;;;;;;;;;10249395;28;20080;-60
2023/06/28 07:19:33;;;;;;;7.78;6.40;;;;;;;;;;10251774;28;20088;-61
2023/06/28 07:24:32;;;;;;;7.38;6.68;;;;;;;;;;10248099;28;20057;-60
2023/06/28 07:29:30;;;;;;;9.13;5.85;;;;;;;;;;10250490;28;20080;-60
2023/06/28 07:34:29;;;;;;;9.38;6.57;;;;;;;;;;10249881;28;20091;-60
2023/06/28 07:39:27;;;;;;;13.63;6.68;;;;;;;;;;10251209;28;20085;-60
2023/06/28 07:44:26;;;;;;;6.75;6.15;;;;;;;;;;10252448;28;20120;-60
2023/06/28 07:49:25;;;;;;;10.05;6.13;;;;;;;;;;10249172;28;20480;-61
2023/06/28 07:54:23;;;;;;;8.85;6.30;;;;;;;;;;10254774;28;20510;-61
2023/06/28 07:59:32;;;;;;;13.85;7.65;;;;;;;;;;10253126;28;20077;-62
2023/06/28 08:04:30;;;;;;;8.70;6.20;;;;;;;;;;10252658;28;20081;-61
2023/06/28 08:09:28;;;;;;;15.43;6.82;;;;;;;;;;10253848;28;20084;-61
2023/06/28 08:14:28;;;;;;;23.98;21.50;;;;;;;;;;10251255;28;20072;-61
2023/06/28 08:19:27;;;;;;;7.60;6.43;;;;;;;;;;10251854;28;20080;-61
2023/06/28 08:24:26;;;;;;;8.70;6.63;;;;;;;;;;10251881;28;20064;-62
2023/06/28 08:29:24;;;;;;;10.63;6.32;;;;;;;;;;10252643;28;20069;-61
2023/06/28 08:34:22;;;;;;;9.30;7.30;;;;;;;;;;10252494;28;20075;-62
2023/06/28 08:39:22;;;;;;;6.35;5.30;;;;;;;;;;10247542;28;20076;-62
2023/06/28 08:44:21;;;;;;;9.88;6.38;;;;;;;;;;10249157;28;20072;-60
2023/06/28 08:49:19;;;;;;;7.50;5.55;;;;;;;;;;10248187;28;20076;-60
2023/06/28 08:54:18;;;;;;;10.98;6.38;;;;;;;;;;10250117;28;20081;-61
2023/06/28 08:59:17;;;;;;;10.32;5.22;;;;;;;;;;10249487;28;20127;-60
2023/06/28 09:04:16;;;;;;;6.10;5.20;;;;;;;;;;10250919;28;20080;-60
2023/06/28 09:09:15;;;;;;;8.07;5.65;;;;;;;;;;10249390;28;20073;-61
2023/06/28 09:14:13;;;;;;;5.68;4.43;;;;;;;;;;10250343;28;20072;-61
2023/06/28 09:19:12;;;;;;;11.05;5.05;;;;;;;;;;10252700;28;20509;-62
2023/06/28 09:24:11;;;;;;;9.15;5.20;;;;;;;;;;10251023;28;20478;-60
2023/06/28 09:29:11;;;;;;;8.43;4.97;;;;;;;;;;10250328;28;20073;-61
2023/06/28 09:34:10;;;;;;;13.45;5.90;;;;;;;;;;10251649;28;20076;-62
2023/06/28 09:39:11;;;;;;;7.63;5.38;;;;;;;;;;10248955;28;20084;-61
2023/06/28 09:44:10;;;;;;;6.97;4.82;;;;;;;;;;10250896;28;20072;-61
2023/06/28 09:49:19;;;;;;;8.55;5.15;;;;;;;;;;10250695;28;20069;-61
2023/06/28 09:54:20;;;;;;;7.03;4.75;;;;;;;;;;10246727;28;20045;-61
2023/06/28 09:59:18;;;;;;;11.57;5.10;;;;;;;;;;10250122;28;20647;-61
2023/06/28 10:04:33;;;;;;;6.57;4.53;;;;;;;;;;10252739;28;20076;-61
2023/06/28 10:09:36;;;;;;;8.10;4.50;;;;;;;;;;10251837;28;20095;-61
2023/06/28 10:14:37;;;;;;;7.40;5.43;;;;;;;;;;10251128;28;20065;-61
2023/06/28 10:19:35;;;;;;;9.90;5.03;;;;;;;;;;10248136;28;20331;-61
2023/06/28 10:24:36;;;;;;;11.75;5.80;;;;;;;;;;10249393;28;20080;-61
2023/06/28 10:29:36;;;;;;;11.40;4.93;;;;;;;;;;10249839;28;20081;-60
2023/06/28 10:34:34;;;;;;;6.03;5.20;;;;;;;;;;10248478;28;20061;-61
2023/06/28 10:39:34;;;;;;;9.20;6.20;;;;;;;;;;10248199;28;20077;-61
2023/06/28 10:44:34;;;;;;;9.02;5.20;;;;;;;;;;10250957;28;20084;-59
2023/06/28 10:49:34;;;;;;;10.95;6.05;;;;;;;;;;10249073;28;20084;-61
2023/06/28 10:54:32;;;;;;;10.77;6.05;;;;;;;;;;10256792;28;20069;-61
2023/06/28 10:59:30;;;;;;;7.47;5.28;;;;;;;;;;10258223;28;20080;-61
2023/06/28 11:04:29;;;;;;;8.68;5.10;;;;;;;;;;10256339;28;20072;-61
2023/06/28 11:09:28;;;;;;;9.68;5.13;;;;;;;;;;10255499;28;20072;-62
2023/06/28 11:14:26;;;;;;;5.60;4.47;;;;;;;;;;10255869;28;20069;-61
2023/06/28 11:19:27;;;;;;;6.13;4.93;;;;;;;;;;10253137;28;20073;-62
2023/06/28 11:24:36;;;;;;;15.10;5.43;;;;;;;;;;10256429;28;20068;-61
2023/06/28 11:29:51;;;;;;;14.25;4.32;;;;;;;;;;10249510;28;20068;-60
2023/06/28 11:34:50;;;;;;;10.98;4.72;;;;;;;;;;10250505;28;20458;-60
2023/06/28 11:39:50;;;;;;;11.82;4.55;;;;;;;;;;10254652;28;20068;-60
2023/06/28 11:44:48;;;;;;;5.00;3.90;;;;;;;;;;10251344;28;20065;-60
2023/06/28 11:49:47;;;;;;;11.35;5.13;;;;;;;;;;10251362;28;20080;-61
2023/06/28 11:54:45;;;;;;;10.02;5.15;;;;;;;;;;10254808;28;20076;-61
2023/06/28 11:59:52;;;;;;;9.48;5.18;;;;;;;;;;10254377;28;20079;-61
2023/06/28 12:04:58;;;;;;;6.95;4.45;;;;;;;;;;10251520;28;20073;-61
2023/06/28 12:09:57;;;;;;;6.40;4.15;;;;;;;;;;10251644;28;20096;-60
2023/06/28 12:14:57;;;;;;;9.20;5.65;;;;;;;;;;10252370;28;20459;-60
2023/06/28 12:19:55;;;;;;;6.25;3.95;;;;;;;;;;10253695;28;20065;-61
2023/06/28 12:24:54;;;;;;;5.47;4.72;;;;;;;;;;10253431;28;20065;-61
2023/06/28 12:29:52;;;;;;;3.92;3.60;;;;;;;;;;10253328;28;20088;-61
2023/06/28 12:34:52;;;;;;;8.77;4.07;;;;;;;;;;10250314;28;20633;-61
2023/06/28 12:39:50;;;;;;;12.05;3.67;;;;;;;;;;10252926;28;20548;-62
2023/06/28 12:44:50;;;;;;;8.10;3.88;;;;;;;;;;10252614;28;20084;-61
2023/06/28 12:49:48;;;;;;;9.02;5.35;;;;;;;;;;10249525;28;20073;-60
2023/06/28 12:54:48;;;;;;;7.57;4.05;;;;;;;;;;10251334;28;20060;-61
2023/06/28 12:59:46;;;;;;;6.57;4.80;;;;;;;;;;10252657;28;20072;-60
2023/06/28 13:04:44;;;;;;;4.30;3.90;;;;;;;;;;10252842;28;20084;-60
2023/06/28 13:09:43;;;;;;;8.68;4.68;;;;;;;;;;10252948;28;20696;-61
2023/06/28 13:14:42;;;;;;;5.93;4.38;;;;;;;;;;10252438;28;20083;-61
2023/06/28 13:19:40;;;;;;;5.03;3.88;;;;;;;;;;10251874;28;20506;-61
2023/06/28 13:24:39;;;;;;;10.27;5.18;;;;;;;;;;10252508;28;20064;-60
2023/06/28 13:29:37;;;;;;;7.68;4.22;;;;;;;;;;10244614;28;20072;-61
2023/06/28 13:34:36;;;;;;;8.40;4.57;;;;;;;;;;10251615;28;20115;-61
2023/06/28 13:39:35;;;;;;;10.90;5.05;;;;;;;;;;10252097;28;20065;-60
2023/06/28 13:44:33;;;;;;;11.82;4.95;;;;;;;;;;10250474;28;20061;-61
2023/06/28 13:49:32;;;;;;;8.30;3.85;;;;;;;;;;10249036;28;20087;-60
2023/06/28 13:54:32;;;;;;;5.50;3.53;;;;;;;;;;10251785;28;20065;-61
2023/06/28 13:59:30;;;;;;;9.30;3.80;;;;;;;;;;10248936;28;20077;-60
2023/06/28 14:04:28;;;;;;;11.80;9.63;;;;;;;;;;10249483;28;20487;-61
2023/06/28 14:09:27;;;;;;;8.18;4.50;;;;;;;;;;10249687;28;20076;-61
2023/06/28 14:14:26;;;;;;;6.43;4.45;;;;;;;;;;10253960;28;20309;-61
2023/06/28 14:19:25;;;;;;;4.80;3.03;;;;;;;;;;10258239;28;20521;-61
2023/06/28 14:24:23;;;;;;;7.25;3.40;;;;;;;;;;10256596;28;20079;-61
2023/06/28 14:29:21;;;;;;;7.35;3.83;;;;;;;;;;10253123;28;20068;-61
2023/06/28 14:34:21;;;;;;;7.45;3.80;;;;;;;;;;10259354;28;20092;-61
2023/06/28 14:39:19;;;;;;;9.55;3.80;;;;;;;;;;10264501;28;20076;-60
2023/06/28 14:44:17;;;;;;;7.03;4.80;;;;;;;;;;10267594;28;20079;-61
2023/06/28 14:49:17;;;;;;;5.63;3.72;;;;;;;;;;10256281;28;20083;-61
2023/06/28 14:54:17;;;;;;;7.45;3.72;;;;;;;;;;10263398;28;20076;-60
2023/06/28 14:59:16;;;;;;;9.77;5.07;;;;;;;;;;10261321;28;20080;-60
2023/06/28 15:04:14;;;;;;;5.43;3.97;;;;;;;;;;10264740;28;20064;-60
2023/06/28 15:09:12;;;;;;;8.00;4.30;;;;;;;;;;10266293;28;20140;-60
2023/06/28 15:14:12;;;;;;;5.43;4.20;;;;;;;;;;10263191;28;20103;-60
2023/06/28 15:19:10;;;;;;;5.47;3.65;;;;;;;;;;10243305;28;20359;-59
2023/06/28 15:24:08;;;;;;;7.22;3.53;;;;;;;;;;10245832;28;20068;-60
2023/06/28 15:29:06;;;;;;;5.03;3.85;;;;;;;;;;10248877;28;20679;-60
2023/06/28 15:34:06;;;;;;;4.45;3.53;;;;;;;;;;10255984;28;20068;-60
2023/06/28 15:39:04;;;;;;;6.65;3.80;;;;;;;;;;10254397;28;20073;-59
2023/06/28 15:44:02;;;;;;;4.30;3.17;;;;;;;;;;10254591;28;20075;-60
2023/06/28 15:49:00;;;;;;;4.90;3.65;;;;;;;;;;10253672;28;20076;-59
2023/06/28 15:54:00;;;;;;;4.57;3.60;;;;;;;;;;10251874;28;20087;-59
2023/06/28 15:58:58;;;;;;;5.97;3.33;;;;;;;;;;10252260;28;20145;-58
2023/06/28 16:03:57;;;;;;;10.40;4.40;;;;;;;;;;10253171;28;20464;-59
2023/06/28 16:08:55;;;;;;;5.53;3.65;;;;;;;;;;10253522;28;20065;-59
2023/06/28 16:13:55;;;;;;;5.13;3.40;;;;;;;;;;10249140;28;20064;-60
2023/06/28 16:18:53;;;;;;;5.25;3.40;;;;;;;;;;10250444;28;20072;-59
2023/06/28 16:23:52;;;;;;;5.85;3.30;;;;;;;;;;10251675;28;20100;-60
2023/06/28 16:28:50;;;;;;;3.40;2.90;;;;;;;;;;10252123;28;20502;-60
2023/06/28 16:33:50;;;;;;;3.60;2.70;;;;;;;;;;10251479;28;20077;-61
2023/06/28 16:38:48;;;;;;;5.68;3.00;;;;;;;;;;10252051;28;20068;-60
2023/06/28 16:43:46;;;;;;;4.35;3.40;;;;;;;;;;10250643;28;20073;-59
2023/06/28 16:48:45;;;;;;;5.90;4.30;;;;;;;;;;10249727;28;20076;-60
2023/06/28 16:53:44;;;;;;;4.55;3.50;;;;;;;;;;10251208;28;20072;-60
2023/06/28 16:58:44;;;;;;;6.18;3.28;;;;;;;;;;10250566;28;20072;-60
2023/06/28 17:03:42;;;;;;;4.25;3.72;;;;;;;;;;10249804;28;20068;-60
2023/06/28 17:08:40;;;;;;;9.65;4.13;;;;;;;;;;10252316;28;20065;-60
2023/06/28 17:13:40;;;;;;;4.78;4.05;;;;;;;;;;10250606;28;20061;-59
2023/06/28 17:18:39;;;;;;;4.85;4.32;;;;;;;;;;10248248;28;20076;-60
2023/06/28 17:23:37;;;;;;;5.15;4.65;;;;;;;;;;10248705;28;20079;-60
2023/06/28 17:28:36;;;;;;;4.63;4.22;;;;;;;;;;10249629;28;20155;-61
2023/06/28 17:33:36;;;;;;;7.60;3.75;;;;;;;;;;10249844;28;20081;-60
2023/06/28 17:38:34;;;;;;;3.40;3.10;;;;;;;;;;10249673;28;20076;-59
2023/06/28 17:43:32;;;;;;;3.05;2.75;;;;;;;;;;10249616;28;20079;-60
2023/06/28 17:48:31;;;;;;;3.53;2.90;;;;;;;;;;10249702;28;20088;-60
2023/06/28 17:53:30;;;;;;;2.83;2.60;;;;;;;;;;10248859;28;20106;-60
2023/06/28 17:58:28;;;;;;;2.70;2.45;;;;;;;;;;10250036;28;20084;-60
2023/06/28 18:03:26;;;;;;;3.42;2.90;;;;;;;;;;10250353;28;20083;-60
2023/06/28 18:08:25;;;;;;;3.45;3.15;;;;;;;;;;10248250;28;20116;-61
2023/06/28 18:13:24;;;;;;;3.67;2.97;;;;;;;;;;10243146;28;20076;-61
2023/06/28 18:18:23;;;;;;;3.42;2.80;;;;;;;;;;10244202;28;20096;-60
2023/06/28 18:23:21;;;;;;;3.05;2.85;;;;;;;;;;10248615;28;20525;-60
2023/06/28 18:28:19;;;;;;;3.40;3.08;;;;;;;;;;10247727;28;20095;-60
2023/06/28 18:33:19;;;;;;;3.13;2.85;;;;;;;;;;10247597;28;20065;-60
2023/06/28 18:38:20;;;;;;;7.82;3.45;;;;;;;;;;10250878;28;20091;-59
2023/06/28 18:43:18;;;;;;;12.63;4.25;;;;;;;;;;10248288;28;20104;-60
2023/06/28 18:48:17;;;;;;;9.70;4.50;;;;;;;;;;10246014;28;20089;-60
2023/06/28 18:53:23;;;;;;;8.43;4.82;;;;;;;;;;10248630;28;20085;-60
2023/06/28 18:58:30;;;;;;;8.70;5.53;;;;;;;;;;10247637;28;20099;-60
2023/06/28 19:03:29;;;;;;;7.50;4.93;;;;;;;;;;10248983;28;20081;-60
2023/06/28 19:08:28;;;;;;;7.32;4.15;;;;;;;;;;10248505;28;20473;-61
2023/06/28 19:13:27;;;;;;;5.43;4.05;;;;;;;;;;10251709;28;20080;-60
2023/06/28 19:18:25;;;;;;;6.65;4.57;;;;;;;;;;10254402;28;20503;-60
2023/06/28 19:23:23;;;;;;;5.13;3.55;;;;;;;;;;10252295;28;20073;-61
2023/06/28 19:28:23;;;;;;;3.72;3.40;;;;;;;;;;10255164;28;20491;-61
2023/06/28 19:33:22;;;;;;;4.47;3.88;;;;;;;;;;10253674;28;20088;-60
2023/06/28 19:38:20;;;;;;;4.00;3.38;;;;;;;;;;10254509;28;20462;-60
2023/06/28 19:43:19;;;;;;;3.42;3.05;;;;;;;;;;10254344;28;20446;-60
2023/06/28 19:48:19;;;;;;;4.55;3.53;;;;;;;;;;10252625;28;20080;-60
2023/06/28 19:53:17;;;;;;;3.13;2.45;;;;;;;;;;10253560;28;20083;-60
2023/06/28 19:58:15;;;;;;;6.82;3.25;;;;;;;;;;10253663;28;20495;-60
2023/06/28 20:03:14;;;;;;;6.10;3.42;;;;;;;;;;10252465;28;20072;-59
2023/06/28 20:08:13;;;;;;;4.20;2.63;;;;;;;;;;10253484;28;20077;-60
2023/06/28 20:13:11;;;;;;;6.32;2.45;;;;;;;;;;10246388;28;20076;-60
2023/06/28 20:18:10;;;;;;;6.28;3.03;;;;;;;;;;10247770;28;20072;-60
2023/06/28 20:23:08;;;;;;;4.68;3.00;;;;;;;;;;10246973;28;20541;-60
2023/06/28 20:28:08;;;;;;;5.00;3.50;;;;;;;;;;10252486;28;20077;-62
2023/06/28 20:33:06;;;;;;;3.95;3.17;;;;;;;;;;10251062;28;20073;-61
2023/06/28 20:38:07;;;;;;;4.63;3.10;;;;;;;;;;10252626;28;20106;-61
2023/06/28 20:43:07;;;;;;;3.65;2.83;;;;;;;;;;10249335;28;20084;-61
2023/06/28 20:48:07;;;;;;;6.38;3.60;;;;;;;;;;10251097;28;20076;-60
2023/06/28 20:53:05;;;;;;;7.45;2.70;;;;;;;;;;10246366;28;20085;-60
2023/06/28 20:58:04;;;;;;;3.63;2.47;;;;;;;;;;10248165;28;20081;-60
2023/06/28 21:03:02;;;;;;;8.77;3.15;;;;;;;;;;10246334;28;20080;-60
2023/06/28 21:08:02;;;;;;;3.40;2.70;;;;;;;;;;10250247;28;20179;-60
2023/06/28 21:13:00;;;;;;;4.05;2.72;;;;;;;;;;10254012;28;20077;-60
2023/06/28 21:17:59;;;;;;;4.07;2.47;;;;;;;;;;10252053;28;20072;-60
2023/06/28 21:22:57;;;;;;;4.82;2.40;;;;;;;;;;10250124;28;20088;-60
2023/06/28 21:27:57;;;;;;;2.60;2.40;;;;;;;;;;10248917;28;20087;-60
2023/06/28 21:32:55;;;;;;;4.93;2.72;;;;;;;;;;10250576;28;20081;-60
2023/06/28 21:37:53;;;;;;;2.70;2.50;;;;;;;;;;10249398;28;20080;-60
2023/06/28 21:42:51;;;;;;;5.28;3.10;;;;;;;;;;10249535;28;20076;-60
2023/06/28 21:47:51;;;;;;;6.60;2.47;;;;;;;;;;10244622;28;20548;-60
2023/06/28 21:52:49;;;;;;;4.70;2.33;;;;;;;;;;10246322;28;20076;-60
2023/06/28 21:57:47;;;;;;;2.40;2.20;;;;;;;;;;10240858;28;20072;-59
2023/06/28 22:02:46;;;;;;;3.60;2.40;;;;;;;;;;10249191;28;20104;-60
2023/06/28 22:07:45;;;;;;;4.32;2.47;;;;;;;;;;10246856;28;20077;-60
2023/06/28 22:12:45;;;;;;;4.43;2.40;;;;;;;;;;10250153;28;20096;-60
2023/06/28 22:17:43;;;;;;;2.85;2.10;;;;;;;;;;10246518;28;20069;-60
2023/06/28 22:22:41;;;;;;;9.23;2.45;;;;;;;;;;10247857;28;20080;-60
2023/06/28 22:27:41;;;;;;;5.80;2.70;;;;;;;;;;10248501;28;20077;-60
2023/06/28 22:32:42;;;;;;;3.28;2.97;;;;;;;;;;10248012;28;20522;-60
2023/06/28 22:37:40;;;;;;;5.03;3.30;;;;;;;;;;10244233;28;20072;-59
2023/06/28 22:42:38;;;;;;;5.50;3.70;;;;;;;;;;10244002;28;20073;-60
2023/06/28 22:47:38;;;;;;;3.70;3.40;;;;;;;;;;10249416;28;20097;-60
2023/06/28 22:52:41;;;;;;;6.03;3.72;;;;;;;;;;10251682;28;20061;-60
2023/06/28 22:57:39;;;;;;;5.17;4.67;;;;;;;;;;10256175;28;20115;-59
2023/06/28 23:02:39;;;;;;;4.82;4.00;;;;;;;;;;10251549;28;20076;-59
2023/06/28 23:07:38;;;;;;;6.50;4.22;;;;;;;;;;10251609;28;20079;-60
2023/06/28 23:12:36;;;;;;;6.50;5.63;;;;;;;;;;10252666;28;20491;-60
2023/06/28 23:17:34;;;;;;;7.05;6.35;;;;;;;;;;10249152;28;20103;-60
2023/06/28 23:22:34;;;;;;;10.55;7.53;;;;;;;;;;10250421;28;20076;-59
2023/06/28 23:27:33;;;;;;;10.85;7.35;;;;;;;;;;10251873;28;20065;-59
2023/06/28 23:32:31;;;;;;;9.15;7.38;;;;;;;;;;10254255;28;20528;-60
2023/06/28 23:37:29;;;;;;;12.85;8.15;;;;;;;;;;10253928;28;20091;-60
2023/06/28 23:42:30;;;;;;;10.35;9.25;;;;;;;;;;10255349;28;20077;-60
2023/06/28 23:47:29;;;;;;;11.57;9.60;;;;;;;;;;10252735;28;20852;-59
2023/06/28 23:52:28;;;;;;;11.00;9.05;;;;;;;;;;10252948;28;20065;-59
2023/06/28 23:57:27;;;;;;;13.00;8.57;;;;;;;;;;10253126;28;20073;-60
